createdAt,value
2023-02-06T00:01:44.682Z,16.80
2023-02-06T00:06:41.848Z,17.40
2023-02-06T00:09:10.167Z,11.80
2023-02-06T00:11:38.335Z,13.40
2023-02-06T00:14:07.120Z,19.10
2023-02-06T00:16:36.687Z,13.00
2023-02-06T00:19:04.816Z,13.40
2023-02-06T00:21:33.501Z,17.00
2023-02-06T00:24:02.846Z,13.40
2023-02-06T00:26:31.668Z,12.70
2023-02-06T00:29:00.034Z,12.90
2023-02-06T00:31:28.493Z,13.30
2023-02-06T00:33:56.589Z,9.00
2023-02-06T00:36:24.670Z,12.20
2023-02-06T00:38:53.101Z,9.70
2023-02-06T00:41:21.692Z,14.20
2023-02-06T00:43:51.726Z,13.60
2023-02-06T00:46:21.158Z,10.20
2023-02-06T00:48:49.520Z,12.40
2023-02-06T00:51:17.661Z,10.40
2023-02-06T00:53:45.799Z,14.60
2023-02-06T00:56:14.709Z,13.80
2023-02-06T00:58:42.836Z,14.00
2023-02-06T01:01:12.623Z,11.80
2023-02-06T01:06:38.298Z,14.00
2023-02-06T01:09:06.586Z,10.40
2023-02-06T01:11:35.744Z,10.40
2023-02-06T01:14:04.182Z,13.80
2023-02-06T01:16:32.349Z,10.20
2023-02-06T01:19:00.471Z,10.90
2023-02-06T01:21:28.755Z,15.10
2023-02-06T01:23:59.520Z,11.70
2023-02-06T01:26:27.839Z,10.20
2023-02-06T01:28:56.773Z,11.40
2023-02-06T01:31:30.555Z,13.60
2023-02-06T01:34:00.874Z,9.60
2023-02-06T01:36:29.324Z,11.40
2023-02-06T01:38:58.372Z,8.50
2023-02-06T01:41:26.680Z,11.90
2023-02-06T01:44:15.658Z,10.80
2023-02-06T01:46:47.369Z,13.20
2023-02-06T01:49:44.547Z,12.30
2023-02-06T01:52:30.465Z,13.40
2023-02-06T01:55:04.052Z,10.70
2023-02-06T01:57:34.443Z,12.50
2023-02-06T02:00:09.327Z,12.30
2023-02-06T02:02:45.201Z,14.10
2023-02-06T02:05:13.523Z,12.80
2023-02-06T02:07:49.178Z,10.40
2023-02-06T02:10:17.647Z,12.10
2023-02-06T02:12:45.846Z,12.20
2023-02-06T02:15:14.190Z,13.70
2023-02-06T02:17:56.418Z,11.70
2023-02-06T02:20:33.566Z,12.70
2023-02-06T02:23:37.110Z,11.60
2023-02-06T02:26:49.896Z,6.10
2023-02-06T02:29:50.247Z,11.60
2023-02-06T02:32:41.448Z,14.50
2023-02-06T02:35:27.683Z,17.00
2023-02-06T02:38:39.852Z,15.60
2023-02-06T02:41:19.093Z,13.70
2023-02-06T02:44:12.395Z,10.30
2023-02-06T02:46:44.624Z,10.40
2023-02-06T02:49:19.051Z,12.70
2023-02-06T02:51:49.194Z,12.20
2023-02-06T02:54:18.497Z,10.70
2023-02-06T02:56:47.219Z,10.50
2023-02-06T02:59:45.976Z,9.20
2023-02-06T03:02:29.078Z,10.70
2023-02-06T03:05:10.503Z,10.40
2023-02-06T03:07:56.705Z,10.00
2023-02-06T03:11:04.057Z,9.80
2023-02-06T03:13:48.894Z,10.60
2023-02-06T03:16:34.140Z,11.10
2023-02-06T03:19:06.477Z,11.30
2023-02-06T03:21:37.020Z,11.50
2023-02-06T03:24:29.681Z,15.00
2023-02-06T03:27:05.409Z,16.20
2023-02-06T03:29:37.976Z,11.60
2023-02-06T03:32:17.301Z,13.20
2023-02-06T03:34:58.070Z,12.70
2023-02-06T03:37:27.706Z,16.80
2023-02-06T03:39:59.204Z,10.20
2023-02-06T03:42:30.083Z,12.40
2023-02-06T03:45:08.416Z,11.40
2023-02-06T03:47:38.949Z,11.50
2023-02-06T03:50:11.116Z,15.90
2023-02-06T03:52:46.111Z,10.40
2023-02-06T03:55:22.549Z,9.80
2023-02-06T03:58:01.442Z,14.00
2023-02-06T04:00:31.729Z,11.80
2023-02-06T04:03:02.103Z,15.60
2023-02-06T04:05:30.477Z,13.70
2023-02-06T04:07:58.655Z,14.60
2023-02-06T04:10:26.888Z,16.80
2023-02-06T04:12:55.025Z,16.70
2023-02-06T04:15:23.977Z,15.00
2023-02-06T04:18:00.429Z,14.10
2023-02-06T04:20:30.093Z,15.40
2023-02-06T04:22:58.906Z,17.10
2023-02-06T04:25:27.064Z,21.40
2023-02-06T04:27:55.360Z,25.50
2023-02-06T04:30:23.612Z,31.10
2023-02-06T04:32:52.099Z,27.50
2023-02-06T04:35:20.774Z,18.70
2023-02-06T04:37:49.011Z,18.50
2023-02-06T04:40:17.412Z,19.30
2023-02-06T04:42:45.882Z,22.50
2023-02-06T04:45:14.591Z,19.50
2023-02-06T04:47:42.723Z,18.80
2023-02-06T04:50:12.321Z,18.00
2023-02-06T04:52:40.564Z,25.70
2023-02-06T04:55:09.613Z,18.70
2023-02-06T04:57:38.144Z,14.20
2023-02-06T05:00:07.505Z,21.90
2023-02-06T05:02:39.699Z,16.70
2023-02-06T05:05:09.687Z,15.00
2023-02-06T05:07:37.851Z,12.60
2023-02-06T05:10:06.645Z,14.90
2023-02-06T05:12:35.038Z,12.00
2023-02-06T05:15:04.381Z,13.80
2023-02-06T05:17:32.571Z,14.30
2023-02-06T05:20:00.781Z,18.40
2023-02-06T05:22:28.920Z,16.10
2023-02-06T05:24:57.054Z,17.90
2023-02-06T05:27:25.702Z,23.70
2023-02-06T05:29:54.015Z,18.70
2023-02-06T05:32:22.216Z,22.90
2023-02-06T05:34:50.629Z,19.30
2023-02-06T05:37:18.782Z,30.40
2023-02-06T05:39:46.918Z,23.60
2023-02-06T05:42:15.057Z,18.90
2023-02-06T05:44:43.255Z,18.20
2023-02-06T05:47:11.358Z,21.50
2023-02-06T05:49:39.580Z,19.50
2023-02-06T05:52:07.743Z,19.60
2023-02-06T05:54:36.195Z,16.20
2023-02-06T05:57:04.436Z,18.50
2023-02-06T05:59:32.642Z,18.90
2023-02-06T06:02:01.849Z,21.00
2023-02-06T06:04:30.792Z,19.80
2023-02-06T06:06:59.049Z,16.20
2023-02-06T06:09:27.260Z,17.60
2023-02-06T06:11:55.483Z,18.40
2023-02-06T06:14:23.735Z,18.80
2023-02-06T06:16:52.792Z,24.20
2023-02-06T06:19:20.998Z,21.90
2023-02-06T06:21:49.202Z,18.90
2023-02-06T06:24:17.449Z,25.10
2023-02-06T06:26:45.612Z,26.30
2023-02-06T06:29:13.767Z,33.30
2023-02-06T06:31:42.032Z,25.80
2023-02-06T06:34:12.721Z,24.60
2023-02-06T06:36:40.858Z,20.70
2023-02-06T06:39:09.050Z,23.80
2023-02-06T06:41:37.286Z,26.10
2023-02-06T06:44:05.522Z,26.50
2023-02-06T06:46:33.696Z,22.00
2023-02-06T06:49:01.833Z,26.80
2023-02-06T06:51:30.167Z,26.70
2023-02-06T06:53:58.665Z,19.90
2023-02-06T06:56:27.103Z,19.00
2023-02-06T06:58:55.714Z,16.80
2023-02-06T07:01:24.168Z,16.90
2023-02-06T07:03:52.283Z,20.70
2023-02-06T07:06:20.437Z,17.90
2023-02-06T07:08:48.596Z,19.40
2023-02-06T07:11:18.769Z,17.70
2023-02-06T07:13:47.386Z,21.50
2023-02-06T07:16:15.609Z,19.80
2023-02-06T07:18:43.942Z,21.90
2023-02-06T07:21:14.368Z,20.20
2023-02-06T07:23:42.644Z,23.10
2023-02-06T07:26:10.857Z,24.30
2023-02-06T07:28:39.787Z,23.50
2023-02-06T07:31:08.532Z,31.00
2023-02-06T07:33:36.708Z,20.70
2023-02-06T07:36:05.386Z,24.10
2023-02-06T07:38:33.486Z,20.50
2023-02-06T07:41:03.176Z,19.90
2023-02-06T07:43:31.618Z,19.70
2023-02-06T07:46:02.319Z,19.70
2023-02-06T07:48:31.748Z,16.80
2023-02-06T07:51:10.000Z,17.00
2023-02-06T07:53:38.990Z,16.20
2023-02-06T07:56:16.858Z,14.00
2023-02-06T07:58:47.414Z,14.70
2023-02-06T08:01:15.606Z,17.00
2023-02-06T08:03:43.841Z,13.70
2023-02-06T08:06:15.821Z,13.70
2023-02-06T08:08:44.792Z,11.50
2023-02-06T08:11:18.652Z,15.20
2023-02-06T08:13:48.044Z,14.20
2023-02-06T08:16:20.244Z,14.30
2023-02-06T08:18:49.200Z,17.00
2023-02-06T08:21:21.545Z,18.90
2023-02-06T08:24:01.019Z,20.00
2023-02-06T08:26:30.389Z,17.50
2023-02-06T08:29:03.792Z,18.00
2023-02-06T08:31:35.622Z,22.00
2023-02-06T08:34:05.891Z,19.00
2023-02-06T08:36:34.687Z,23.60
2023-02-06T08:39:05.548Z,20.50
2023-02-06T08:41:38.501Z,21.80
2023-02-06T08:44:12.386Z,19.00
2023-02-06T08:46:40.998Z,17.40
2023-02-06T08:49:14.619Z,17.40
2023-02-06T08:51:43.754Z,12.80
2023-02-06T08:54:15.898Z,15.50
2023-02-06T08:56:44.190Z,13.20
2023-02-06T08:59:14.755Z,13.50
2023-02-06T09:01:45.659Z,13.70
2023-02-06T09:04:15.212Z,11.60
2023-02-06T09:06:46.537Z,11.60
2023-02-06T09:09:15.404Z,12.20
2023-02-06T09:11:43.629Z,13.40
2023-02-06T09:14:18.096Z,10.60
2023-02-06T09:16:46.352Z,17.30
2023-02-06T09:19:14.572Z,11.40
2023-02-06T09:21:44.000Z,15.50
2023-02-06T09:24:12.144Z,16.30
2023-02-06T09:26:58.555Z,11.90
2023-02-06T09:29:31.630Z,11.80
2023-02-06T09:32:00.644Z,9.70
2023-02-06T09:34:29.042Z,9.90
2023-02-06T09:36:57.930Z,10.60
2023-02-06T09:39:26.299Z,15.00
2023-02-06T09:42:03.205Z,12.00
2023-02-06T09:44:49.100Z,7.80
2023-02-06T09:47:27.563Z,10.00
2023-02-06T09:50:28.297Z,14.60
2023-02-06T09:53:03.286Z,13.80
2023-02-06T09:55:46.851Z,9.50
2023-02-06T09:58:36.428Z,10.30
2023-02-06T10:01:12.624Z,9.80
2023-02-06T10:04:24.257Z,13.80
2023-02-06T10:07:36.346Z,8.70
2023-02-06T10:10:25.869Z,9.50
2023-02-06T10:13:32.986Z,11.60
2023-02-06T10:16:36.239Z,13.20
2023-02-06T10:19:33.451Z,10.60
2023-02-06T10:22:15.090Z,10.90
2023-02-06T10:24:57.237Z,9.30
2023-02-06T10:27:25.448Z,9.90
2023-02-06T10:29:54.372Z,10.80
2023-02-06T10:32:46.430Z,10.70
2023-02-06T10:35:36.430Z,9.90
2023-02-06T10:38:18.349Z,12.70
2023-02-06T10:40:59.574Z,9.80
2023-02-06T10:44:01.829Z,11.30
2023-02-06T10:46:46.248Z,8.90
2023-02-06T10:49:46.726Z,9.10
2023-02-06T10:52:32.713Z,10.70
2023-02-06T10:55:14.705Z,9.70
2023-02-06T10:57:46.284Z,12.00
2023-02-06T11:00:26.600Z,9.50
2023-02-06T11:03:08.191Z,13.20
2023-02-06T11:05:38.348Z,14.50
2023-02-06T11:08:25.514Z,10.40
2023-02-06T11:10:54.906Z,10.10
2023-02-06T11:13:38.611Z,7.40
2023-02-06T11:16:15.464Z,11.00
2023-02-06T11:18:46.849Z,13.40
2023-02-06T11:22:12.154Z,14.00
2023-02-06T11:24:59.905Z,14.30
2023-02-06T11:27:29.286Z,10.30
2023-02-06T11:30:09.375Z,7.90
2023-02-06T11:32:43.886Z,11.40
2023-02-06T11:35:35.115Z,9.60
2023-02-06T11:38:24.512Z,9.50
2023-02-06T11:41:09.538Z,9.40
2023-02-06T11:43:43.735Z,8.90
2023-02-06T11:46:17.038Z,11.30
2023-02-06T11:48:58.552Z,10.30
2023-02-06T11:51:48.472Z,8.40
2023-02-06T11:54:30.312Z,10.10
2023-02-06T11:57:33.810Z,10.10
2023-02-06T12:00:21.448Z,8.00
2023-02-06T12:02:55.291Z,10.00
2023-02-06T12:05:28.804Z,9.90
2023-02-06T12:08:02.539Z,7.70
2023-02-06T12:10:35.776Z,9.40
2023-02-06T12:13:17.881Z,9.60
2023-02-06T12:15:51.895Z,11.20
2023-02-06T12:18:35.095Z,7.60
2023-02-06T12:21:24.618Z,8.70
2023-02-06T12:24:01.221Z,9.00
2023-02-06T12:26:35.336Z,10.80
2023-02-06T12:29:13.014Z,10.80
2023-02-06T12:32:05.750Z,10.90
2023-02-06T12:34:49.714Z,11.80
2023-02-06T12:37:39.778Z,8.60
2023-02-06T12:40:43.450Z,18.60
2023-02-06T12:43:15.279Z,12.10
2023-02-06T12:46:01.190Z,11.00
2023-02-06T12:48:38.944Z,14.00
2023-02-06T12:51:56.258Z,12.00
2023-02-06T12:54:46.266Z,11.50
2023-02-06T12:57:28.953Z,12.10
2023-02-06T13:00:27.748Z,11.50
2023-02-06T13:03:01.951Z,11.20
2023-02-06T13:05:39.762Z,10.90
2023-02-06T13:08:22.654Z,12.70
2023-02-06T13:11:04.205Z,11.90
2023-02-06T13:13:39.805Z,11.30
2023-02-06T13:16:09.661Z,9.80
2023-02-06T13:18:50.642Z,11.90
2023-02-06T13:21:29.504Z,12.30
2023-02-06T13:24:16.546Z,16.80
2023-02-06T13:26:48.906Z,13.70
2023-02-06T13:29:29.873Z,14.10
2023-02-06T13:32:18.424Z,12.20
2023-02-06T13:34:49.371Z,15.70
2023-02-06T13:37:39.912Z,14.40
2023-02-06T13:40:23.279Z,14.70
2023-02-06T13:43:03.636Z,16.50
2023-02-06T13:45:58.580Z,11.20
2023-02-06T13:48:36.007Z,18.80
2023-02-06T13:51:19.085Z,15.40
2023-02-06T13:54:15.151Z,11.80
2023-02-06T13:57:01.594Z,14.00
2023-02-06T13:59:41.936Z,14.10
2023-02-06T14:02:50.854Z,15.60
2023-02-06T14:05:25.961Z,12.10
2023-02-06T14:08:18.742Z,12.20
2023-02-06T14:10:56.015Z,11.60
2023-02-06T14:13:49.132Z,9.80
2023-02-06T14:16:52.590Z,10.10
2023-02-06T14:19:27.307Z,11.10
2023-02-06T14:22:34.002Z,13.30
2023-02-06T14:25:37.023Z,12.60
2023-02-06T14:28:42.165Z,11.70
2023-02-06T14:31:26.890Z,11.70
2023-02-06T14:34:38.984Z,11.00
2023-02-06T14:37:45.861Z,10.50
2023-02-06T14:40:34.619Z,11.90
2023-02-06T14:43:06.203Z,11.80
2023-02-06T14:45:42.005Z,10.20
2023-02-06T14:48:24.161Z,11.30
2023-02-06T14:50:57.279Z,12.90
2023-02-06T14:56:16.765Z,8.30
2023-02-06T14:58:46.542Z,14.60
2023-02-06T15:01:17.637Z,14.80
2023-02-06T15:03:48.736Z,12.80
2023-02-06T15:06:56.745Z,17.10
2023-02-06T15:09:35.432Z,12.60
2023-02-06T15:12:26.712Z,19.20
2023-02-06T15:15:02.827Z,17.80
2023-02-06T15:17:32.342Z,15.40
2023-02-06T15:20:25.829Z,14.00
2023-02-06T15:23:05.062Z,14.90
2023-02-06T15:25:54.801Z,14.70
2023-02-06T15:28:27.865Z,19.30
2023-02-06T15:30:59.218Z,17.50
2023-02-06T15:33:32.805Z,20.50
2023-02-06T15:36:04.760Z,21.50
2023-02-06T15:38:34.200Z,16.40
2023-02-06T15:41:07.293Z,19.50
2023-02-06T15:43:36.342Z,17.80
2023-02-06T15:46:06.051Z,16.70
2023-02-06T15:48:41.522Z,36.50
2023-02-06T15:51:38.152Z,32.80
2023-02-06T15:54:16.198Z,23.80
2023-02-06T15:56:50.987Z,31.80
2023-02-06T15:59:27.323Z,27.00
2023-02-06T16:01:58.140Z,31.50
2023-02-06T16:04:35.941Z,31.00
2023-02-06T16:07:13.271Z,24.10
2023-02-06T16:09:58.490Z,29.40
2023-02-06T16:12:26.718Z,33.50
2023-02-06T16:15:02.977Z,31.80
2023-02-06T16:17:42.745Z,32.30
2023-02-06T16:20:32.276Z,38.10
2023-02-06T16:23:22.443Z,30.50
2023-02-06T16:26:21.001Z,34.80
2023-02-06T16:29:08.511Z,42.70
2023-02-06T16:31:43.576Z,43.00
2023-02-06T16:34:35.999Z,30.80
2023-02-06T16:37:11.984Z,45.60
2023-02-06T16:39:42.627Z,44.50
2023-02-06T16:42:22.941Z,40.50
2023-02-06T16:44:58.287Z,41.60
2023-02-06T16:47:27.287Z,44.30
2023-02-06T16:49:55.633Z,53.00
2023-02-06T16:52:34.098Z,49.10
2023-02-06T16:55:02.474Z,63.20
2023-02-06T16:57:41.799Z,54.00
2023-02-06T17:00:19.484Z,53.70
2023-02-06T17:02:49.399Z,43.90
2023-02-06T17:05:19.154Z,40.30
2023-02-06T17:07:50.877Z,28.00
2023-02-06T17:10:23.363Z,27.90
2023-02-06T17:12:52.505Z,28.90
2023-02-06T17:15:21.155Z,27.60
2023-02-06T17:17:49.350Z,28.80
2023-02-06T17:20:35.343Z,25.30
2023-02-06T17:23:04.998Z,32.90
2023-02-06T17:25:33.773Z,31.00
2023-02-06T17:28:02.427Z,48.30
2023-02-06T17:30:30.715Z,78.60
2023-02-06T17:32:59.449Z,64.60
2023-02-06T17:35:28.189Z,62.50
2023-02-06T17:37:57.435Z,54.50
2023-02-06T17:40:30.832Z,53.40
2023-02-06T17:43:02.170Z,58.00
2023-02-06T17:45:32.328Z,56.80
2023-02-06T17:48:00.855Z,58.60
2023-02-06T17:50:29.863Z,65.50
2023-02-06T17:52:59.590Z,61.00
2023-02-06T17:55:28.315Z,54.50
2023-02-06T17:57:56.880Z,80.30
2023-02-06T18:00:25.742Z,75.30
2023-02-06T18:02:55.694Z,84.10
2023-02-06T18:05:24.508Z,64.20
2023-02-06T18:07:52.691Z,47.00
2023-02-06T18:10:23.655Z,36.50
2023-02-06T18:12:52.177Z,51.20
2023-02-06T18:15:20.652Z,49.90
2023-02-06T18:17:48.839Z,39.40
2023-02-06T18:20:17.852Z,36.80
2023-02-06T18:22:47.250Z,44.60
2023-02-06T18:25:15.721Z,37.80
2023-02-06T18:27:46.082Z,39.80
2023-02-06T18:30:15.620Z,34.30
2023-02-06T18:32:43.903Z,36.70
2023-02-06T18:35:12.418Z,36.60
2023-02-06T18:37:40.633Z,45.60
2023-02-06T18:40:09.701Z,38.50
2023-02-06T18:42:56.247Z,40.20
2023-02-06T18:45:31.255Z,40.10
2023-02-06T18:47:59.555Z,38.90
2023-02-06T18:50:28.409Z,44.70
2023-02-06T18:52:57.221Z,42.80
2023-02-06T18:55:25.971Z,45.60
2023-02-06T18:57:54.576Z,40.70
2023-02-06T19:00:24.832Z,42.50
2023-02-06T19:02:53.097Z,42.60
2023-02-06T19:05:22.078Z,51.30
2023-02-06T19:07:53.136Z,54.60
2023-02-06T19:10:22.111Z,54.10
2023-02-06T19:12:50.383Z,52.30
2023-02-06T19:15:19.179Z,53.10
2023-02-06T19:17:49.392Z,53.50
2023-02-06T19:20:19.399Z,49.90
2023-02-06T19:22:47.684Z,57.30
2023-02-06T19:25:15.859Z,65.00
2023-02-06T19:27:44.042Z,67.10
2023-02-06T19:30:13.647Z,58.10
2023-02-06T19:32:41.928Z,57.50
2023-02-06T19:35:12.074Z,52.20
2023-02-06T19:37:40.359Z,66.90
2023-02-06T19:40:09.038Z,62.70
2023-02-06T19:42:38.624Z,57.70
2023-02-06T19:45:07.335Z,64.50
2023-02-06T19:47:36.178Z,65.30
2023-02-06T19:50:04.905Z,70.80
2023-02-06T19:52:35.214Z,60.30
2023-02-06T19:55:04.324Z,67.70
2023-02-06T19:57:32.483Z,60.30
2023-02-06T20:00:00.696Z,53.80
2023-02-06T20:02:29.605Z,63.20
2023-02-06T20:04:58.058Z,66.90
2023-02-06T20:07:27.000Z,69.70
2023-02-06T20:09:55.972Z,58.10
2023-02-06T20:12:24.230Z,60.60
2023-02-06T20:14:52.578Z,63.00
2023-02-06T20:17:21.724Z,58.30
2023-02-06T20:19:49.838Z,52.40
2023-02-06T20:22:18.955Z,72.00
2023-02-06T20:24:47.116Z,70.30
2023-02-06T20:27:15.300Z,73.60
2023-02-06T20:29:45.758Z,57.10
2023-02-06T20:32:16.737Z,58.00
2023-02-06T20:34:46.195Z,71.70
2023-02-06T20:37:14.386Z,63.30
2023-02-06T20:39:42.518Z,73.10
2023-02-06T20:42:10.734Z,60.60
2023-02-06T20:44:39.186Z,52.60
2023-02-06T20:47:07.332Z,60.80
2023-02-06T20:49:35.528Z,65.80
2023-02-06T20:52:03.703Z,65.10
2023-02-06T20:54:31.806Z,59.30
2023-02-06T20:57:00.534Z,62.00
2023-02-06T20:59:29.296Z,62.60
2023-02-06T21:01:57.730Z,66.00
2023-02-06T21:04:25.891Z,76.80
2023-02-06T21:06:54.094Z,72.70
2023-02-06T21:09:22.246Z,56.90
2023-02-06T21:11:50.645Z,51.70
2023-02-06T21:14:19.613Z,49.80
2023-02-06T21:16:49.287Z,52.70
2023-02-06T21:19:20.418Z,50.00
2023-02-06T21:21:49.563Z,55.90
2023-02-06T21:24:18.454Z,53.70
2023-02-06T21:26:47.458Z,53.00
2023-02-06T21:29:16.082Z,58.70
2023-02-06T21:31:46.136Z,62.10
2023-02-06T21:34:19.287Z,82.60
2023-02-06T21:36:48.948Z,60.20
2023-02-06T21:39:23.743Z,64.80
2023-02-06T21:41:53.710Z,63.20
2023-02-06T21:44:24.588Z,59.10
2023-02-06T21:46:53.789Z,57.70
2023-02-06T21:49:23.351Z,60.90
2023-02-06T21:51:53.134Z,68.50
2023-02-06T21:54:22.026Z,65.10
2023-02-06T21:56:51.156Z,62.30
2023-02-06T21:59:19.252Z,58.10
2023-02-06T22:01:47.445Z,61.50
2023-02-06T22:04:15.639Z,52.30
2023-02-06T22:06:43.814Z,58.10
2023-02-06T22:09:16.493Z,57.50
2023-02-06T22:11:44.864Z,62.10
2023-02-06T22:14:18.077Z,64.50
2023-02-06T22:16:46.901Z,61.60
2023-02-06T22:19:16.453Z,62.10
2023-02-06T22:21:45.019Z,54.30
2023-02-06T22:24:13.730Z,54.20
2023-02-06T22:26:43.102Z,59.80
2023-02-06T22:29:17.140Z,58.30
2023-02-06T22:31:45.800Z,58.70
2023-02-06T22:34:20.929Z,58.40
2023-02-06T22:36:51.185Z,55.00
2023-02-06T22:39:20.071Z,63.70
2023-02-06T22:41:48.616Z,61.10
2023-02-06T22:44:19.592Z,59.90
2023-02-06T22:46:52.723Z,73.00
2023-02-06T22:51:50.217Z,50.70
2023-02-06T22:54:18.520Z,51.10
2023-02-06T22:56:46.690Z,64.10
2023-02-06T22:59:18.709Z,51.60
2023-02-06T23:01:51.931Z,52.30
2023-02-06T23:04:23.911Z,54.70
2023-02-06T23:06:52.495Z,53.00
2023-02-06T23:09:28.169Z,46.90
2023-02-06T23:11:58.432Z,55.80
2023-02-06T23:14:30.094Z,53.40
2023-02-06T23:17:00.989Z,46.90
2023-02-06T23:19:29.980Z,54.90
2023-02-06T23:21:58.215Z,48.50
2023-02-06T23:24:26.602Z,53.30
2023-02-06T23:26:55.131Z,51.50
2023-02-06T23:29:24.283Z,47.80
2023-02-06T23:31:52.574Z,52.80
2023-02-06T23:34:23.741Z,48.60
2023-02-06T23:36:52.741Z,44.30
2023-02-06T23:39:21.039Z,43.20
2023-02-06T23:41:49.260Z,52.60
2023-02-06T23:44:17.561Z,43.60
2023-02-06T23:46:46.001Z,50.80
2023-02-06T23:49:14.555Z,46.60
2023-02-06T23:51:42.848Z,48.50
2023-02-06T23:54:11.270Z,50.80
2023-02-06T23:56:39.615Z,48.70
2023-02-06T23:59:07.753Z,42.90
